Terminal Aerodrome Forecast
Issued by NWS Newport/Morehead City, NC

Home | Current Version | Previous Version | Graphics & Text | Print | Product List | Glossary On
Versions: 1 2 3 4 5 6 7 8 9 10 11 12
039
FTUS42 KMHX 191121
TAFEWN
TAF
KEWN 191121Z 1912/2012 23011G19KT P6SM SKC
     FM191600 24012G20KT P6SM BKN050
     FM200000 32012KT P6SM SCT250=

USA.gov is the U.S. government's official web portal to all federal, state and local government web resources and services.